Atlantica — WDF3913 — position and weather

sailwx.info

Track history (hours):
 
Tides and Currents Weather Stations Pressure Air Temp Water Temp Dewpoint Dewpoint Depression Visibility Wind Speed Wind Dir Waves Ship Positions

Atlantica

Owner: Spirit Cruises LLC, New York, NY. More information available from US FCC via Universal Licensing System and Coast Guard Vessel Documentation Center.

Last reported at 2018-Aug-20 22:18 UTC. Time now 2018-Aug-21 04:19 UTC.
Position N 40°45' W 074°01'.

Length 45 m; draft 3.5 m.

Type: Passenger vessel. MMSI: 367445550.

Date/timePositionNaut miles runAvg speedWind from/ knotsBaromVisibWave heightAir tempDewpointWater temp
2018-Aug-20 22:18N 40°45' W 074°01'1 4.6
2018-Aug-20 22:03N 40°44' W 074°01'0 8.3
2018-Aug-20 22:00N 40°43' W 074°01'3 5.1
2018-Aug-20 21:30N 40°41' W 074°01'2 5.3
2018-Aug-20 21:03N 40°43' W 074°01'0 7.2
2018-Aug-20 21:01N 40°44' W 074°01'1 0.1
2018-Aug-20 01:48N 40°45' W 074°01'1 5.1
2018-Aug-20 01:30N 40°44' W 074°01'2 4.8
2018-Aug-20 01:00N 40°41' W 074°02'2 4.9
2018-Aug-20 00:30N 40°44' W 074°01'2 3.7
2018-Aug-20 00:00N 40°42' W 073°59'2 3.2
2018-Aug-19 23:30N 40°44' W 073°58'3 5.5
2018-Aug-19 23:00N 40°42' W 074°00'4 7.3
2018-Aug-19 22:30N 40°45' W 074°01'1 0.0
2018-Aug-19 03:22N 40°45' W 074°01'1 2.1
2018-Aug-19 03:00N 40°46' W 074°01'0 0.0
2018-Aug-19 02:30N 40°46' W 074°01'2 3.2
2018-Aug-19 02:00N 40°44' W 074°01'3 5.5
2018-Aug-19 01:30N 40°41' W 074°02'2 3.2
2018-Aug-19 01:01N 40°42' W 074°00'3 6.1
2018-Aug-19 00:30N 40°45' W 073°58'2 4.7
2018-Aug-19 00:01N 40°42' W 073°59'2 3.6
2018-Aug-18 23:30N 40°43' W 074°01'3 6.4
2018-Aug-18 22:58N 40°46' W 074°00'1 2.5
2018-Aug-18 22:30N 40°46' W 074°01'0 0.0
2018-Aug-18 22:00N 40°46' W 074°01'0 0.0
2018-Aug-18 21:28N 40°46' W 074°01'0 0.0
2018-Aug-18 21:00N 40°46' W 074°01'1 0.3
2018-Aug-18 18:19N 40°45' W 074°01'1 4.7
2018-Aug-18 18:00N 40°43' W 074°01'2 3.9
2018-Aug-18 17:30N 40°42' W 074°02'1 2.6
2018-Aug-18 17:00N 40°43' W 074°01'3 5.2
2018-Aug-18 16:30N 40°45' W 074°01'1 0.0
2018-Aug-18 02:33N 40°45' W 074°01'0 3.6
2018-Aug-18 02:31N 40°45' W 074°01'1 2.9
2018-Aug-18 02:01N 40°43' W 074°01'3 5.0
2018-Aug-18 01:30N 40°41' W 074°03'3 7.0
2018-Aug-18 01:00N 40°43' W 073°58'2 4.5
2018-Aug-18 00:31N 40°43' W 074°01'3 4.8
2018-Aug-17 23:55N 40°45' W 074°01'1 0.0
2018-Aug-16 18:18N 40°45' W 074°01'2 8.3
2018-Aug-16 18:00N 40°43' W 074°02'2 3.9
2018-Aug-16 17:30N 40°44' W 074°01'2 3.3
2018-Aug-16 17:00N 40°46' W 074°00'1 0.0
2018-Aug-15 01:23N 40°45' W 074°01'3 7.0
2018-Aug-15 01:00N 40°42' W 074°01'1 1.6
2018-Aug-15 00:30N 40°42' W 074°02'4 7.1
2018-Aug-15 00:00N 40°43' W 073°58'3 5.8
2018-Aug-14 23:30N 40°43' W 074°02'3 6.0
2018-Aug-14 23:00N 40°46' W 074°01'1 0.0
2018-Aug-12 20:30N 40°45' W 074°01'1 1.6
2018-Aug-12 20:00N 40°46' W 074°01'0 0.3
2018-Aug-12 19:30N 40°46' W 074°01'2 3.2
2018-Aug-12 19:00N 40°44' W 074°01'3 6.2
2018-Aug-12 18:30N 40°41' W 074°03'4 7.2
2018-Aug-12 17:54N 40°44' W 073°58'2 5.0
2018-Aug-12 17:28N 40°42' W 073°60'2 5.0
2018-Aug-12 17:00N 40°44' W 074°01'1 2.4
2018-Aug-12 16:28N 40°46' W 074°01'0 0.0
2018-Aug-12 16:00N 40°46' W 074°01'1 1.1
2018-Aug-12 15:28N 40°45' W 074°01'0 0.0
2018-Aug-12 02:24N 40°45' W 074°01'1 0.8
2018-Aug-12 01:48N 40°46' W 074°01'0 0.0
2018-Aug-12 01:29N 40°46' W 074°01'2 4.4
2018-Aug-12 01:00N 40°44' W 074°01'2 3.4
2018-Aug-12 00:30N 40°42' W 074°01'0 0.1
2018-Aug-12 00:00N 40°42' W 074°01'3 6.2
2018-Aug-11 23:30N 40°45' W 074°01'2 3.3
2018-Aug-11 22:58N 40°47' W 073°60'1 1.1
2018-Aug-11 21:46N 40°46' W 074°01'0 0.0
2018-Aug-11 21:30N 40°46' W 074°01'0 0.0
2018-Aug-11 21:00N 40°46' W 074°01'1 0.0
2018-Aug-11 01:29N 40°45' W 074°01'1 3.0
2018-Aug-11 01:00N 40°44' W 074°01'2 4.8
2018-Aug-11 00:31N 40°41' W 074°02'3 5.5
2018-Aug-11 00:00N 40°42' W 073°59'2 4.6
2018-Aug-10 23:31N 40°44' W 074°01'1 2.0
2018-Aug-10 22:53N 40°45' W 074°01'  
Track history (hours):
 
Tides and Currents Weather Stations Pressure Air Temp Water Temp Dewpoint Dewpoint Depression Visibility Wind Speed Wind Dir Waves Ship Positions

Atlantica

Owner: Spirit Cruises LLC, New York, NY. More information available from US FCC via Universal Licensing System and Coast Guard Vessel Documentation Center.

Last reported at 2018-Aug-20 22:18 UTC. Time now 2018-Aug-21 04:19 UTC.
Position N 40°45' W 074°01'.

Length 45 m; draft 3.5 m.

Type: Passenger vessel. MMSI: 367445550.

Date/timePositionNaut miles runAvg speedWind from/ knotsBaromVisibWave heightAir tempDewpointWater temp
2018-Aug-20 22:18N 40°45' W 074°01'1 4.6
2018-Aug-20 22:03N 40°44' W 074°01'0 8.3
2018-Aug-20 22:00N 40°43' W 074°01'3 5.1
2018-Aug-20 21:30N 40°41' W 074°01'2 5.3
2018-Aug-20 21:03N 40°43' W 074°01'0 7.2
2018-Aug-20 21:01N 40°44' W 074°01'1 0.1
2018-Aug-20 01:48N 40°45' W 074°01'1 5.1
2018-Aug-20 01:30N 40°44' W 074°01'2 4.8
2018-Aug-20 01:00N 40°41' W 074°02'2 4.9
2018-Aug-20 00:30N 40°44' W 074°01'2 3.7
2018-Aug-20 00:00N 40°42' W 073°59'2 3.2
2018-Aug-19 23:30N 40°44' W 073°58'3 5.5
2018-Aug-19 23:00N 40°42' W 074°00'4 7.3
2018-Aug-19 22:30N 40°45' W 074°01'1 0.0
2018-Aug-19 03:22N 40°45' W 074°01'1 2.1
2018-Aug-19 03:00N 40°46' W 074°01'0 0.0
2018-Aug-19 02:30N 40°46' W 074°01'2 3.2
2018-Aug-19 02:00N 40°44' W 074°01'3 5.5
2018-Aug-19 01:30N 40°41' W 074°02'2 3.2
2018-Aug-19 01:01N 40°42' W 074°00'3 6.1
2018-Aug-19 00:30N 40°45' W 073°58'2 4.7
2018-Aug-19 00:01N 40°42' W 073°59'2 3.6
2018-Aug-18 23:30N 40°43' W 074°01'3 6.4
2018-Aug-18 22:58N 40°46' W 074°00'1 2.5
2018-Aug-18 22:30N 40°46' W 074°01'0 0.0
2018-Aug-18 22:00N 40°46' W 074°01'0 0.0
2018-Aug-18 21:28N 40°46' W 074°01'0 0.0
2018-Aug-18 21:00N 40°46' W 074°01'1 0.3
2018-Aug-18 18:19N 40°45' W 074°01'1 4.7
2018-Aug-18 18:00N 40°43' W 074°01'2 3.9
2018-Aug-18 17:30N 40°42' W 074°02'1 2.6
2018-Aug-18 17:00N 40°43' W 074°01'3 5.2
2018-Aug-18 16:30N 40°45' W 074°01'1 0.0
2018-Aug-18 02:33N 40°45' W 074°01'0 3.6
2018-Aug-18 02:31N 40°45' W 074°01'1 2.9
2018-Aug-18 02:01N 40°43' W 074°01'3 5.0
2018-Aug-18 01:30N 40°41' W 074°03'3 7.0
2018-Aug-18 01:00N 40°43' W 073°58'2 4.5
2018-Aug-18 00:31N 40°43' W 074°01'3 4.8
2018-Aug-17 23:55N 40°45' W 074°01'1 0.0
2018-Aug-16 18:18N 40°45' W 074°01'2 8.3
2018-Aug-16 18:00N 40°43' W 074°02'2 3.9
2018-Aug-16 17:30N 40°44' W 074°01'2 3.3
2018-Aug-16 17:00N 40°46' W 074°00'1 0.0
2018-Aug-15 01:23N 40°45' W 074°01'3 7.0
2018-Aug-15 01:00N 40°42' W 074°01'1 1.6
2018-Aug-15 00:30N 40°42' W 074°02'4 7.1
2018-Aug-15 00:00N 40°43' W 073°58'3 5.8
2018-Aug-14 23:30N 40°43' W 074°02'3 6.0
2018-Aug-14 23:00N 40°46' W 074°01'1 0.0
2018-Aug-12 20:30N 40°45' W 074°01'1 1.6
2018-Aug-12 20:00N 40°46' W 074°01'0 0.3
2018-Aug-12 19:30N 40°46' W 074°01'2 3.2
2018-Aug-12 19:00N 40°44' W 074°01'3 6.2
2018-Aug-12 18:30N 40°41' W 074°03'4 7.2
2018-Aug-12 17:54N 40°44' W 073°58'2 5.0
2018-Aug-12 17:28N 40°42' W 073°60'2 5.0
2018-Aug-12 17:00N 40°44' W 074°01'1 2.4
2018-Aug-12 16:28N 40°46' W 074°01'0 0.0
2018-Aug-12 16:00N 40°46' W 074°01'1 1.1
2018-Aug-12 15:28N 40°45' W 074°01'0 0.0
2018-Aug-12 02:24N 40°45' W 074°01'1 0.8
2018-Aug-12 01:48N 40°46' W 074°01'0 0.0
2018-Aug-12 01:29N 40°46' W 074°01'2 4.4
2018-Aug-12 01:00N 40°44' W 074°01'2 3.4
2018-Aug-12 00:30N 40°42' W 074°01'0 0.1
2018-Aug-12 00:00N 40°42' W 074°01'3 6.2
2018-Aug-11 23:30N 40°45' W 074°01'2 3.3
2018-Aug-11 22:58N 40°47' W 073°60'1 1.1
2018-Aug-11 21:46N 40°46' W 074°01'0 0.0
2018-Aug-11 21:30N 40°46' W 074°01'0 0.0
2018-Aug-11 21:00N 40°46' W 074°01'1 0.0
2018-Aug-11 01:29N 40°45' W 074°01'1 3.0
2018-Aug-11 01:00N 40°44' W 074°01'2 4.8
2018-Aug-11 00:31N 40°41' W 074°02'3 5.5
2018-Aug-11 00:00N 40°42' W 073°59'2 4.6
2018-Aug-10 23:31N 40°44' W 074°01'1 2.0
2018-Aug-10 22:53N 40°45' W 074°01'  

Dump ship's entire track history